Time;durP1;ratioP1;P1;durP2;ratioP2;P2;SDS_P1;SDS_P2;PMS_P1;PMS_P2;Temp;Humidity;BMP_temperature;BMP_pressure;BME280_temperature;BME280_humidity;BME280_pressure;Samples;Min_cycle;Max_cycle;Signal;HPM_P1;HPM_P2
2021/06/03 00:02:17;;;;;;;;;;;;;;;21.72;42.84;99171.75;5049639;28;19952;-63
2021/06/03 00:04:43;;;;;;;;;;;;;;;22.15;42.18;99172.91;5039451;28;19958;-63
2021/06/03 00:07:09;;;;;;;;;;;;;;;21.92;41.75;99164.19;5053946;28;19960;-63
2021/06/03 00:09:34;;;;;;;;;;;;;;;22.06;41.60;99165.75;5055075;28;19987;-63
2021/06/03 00:11:59;;;;;;;;;;;;;;;21.76;42.22;99158.41;5034521;28;19920;-64
2021/06/03 00:14:25;;;;;;;;;;;;;;;22.08;41.97;99171.72;5052354;28;19916;-64
2021/06/03 00:16:50;;;;;;;;;;;;;;;21.92;41.94;99166.81;5055960;28;19950;-63
2021/06/03 00:19:15;;;;;;;;;;;;;;;21.79;42.79;99166.06;5059294;28;19920;-64
2021/06/03 00:21:42;;;;;;;;;;;;;;;21.80;42.93;99163.28;5032158;28;20031;-64
2021/06/03 00:24:07;;;;;;;;;;;;;;;21.79;43.11;99152.94;5048298;28;20344;-64
2021/06/03 00:26:33;;;;;;;;;;;;;;;21.66;43.54;99148.63;5056428;28;19960;-63
2021/06/03 00:28:59;;;;;;;;;;;;;;;21.46;43.81;99154.53;5040331;28;20431;-63
2021/06/03 00:31:24;;;;;;;;;;;;;;;21.52;43.19;99148.81;5056267;28;19924;-64
2021/06/03 00:33:49;;;;;;;;;;;;;;;21.48;42.54;99147.38;5050621;28;19917;-64
2021/06/03 00:36:15;;;;;;;;;;;;;;;21.35;43.20;99139.59;5049556;28;19921;-64
2021/06/03 00:38:40;;;;;;;;;;;;;;;21.43;42.51;99139.88;5055214;28;19916;-63
2021/06/03 00:41:06;;;;;;;;;;;;;;;21.55;42.13;99145.13;5050347;28;19927;-63
2021/06/03 00:43:31;;;;;;;;;;;;;;;21.68;42.00;99151.97;5055435;28;19956;-63
2021/06/03 00:45:57;;;;;;;;;;;;;;;21.79;41.83;99148.53;5047645;28;19913;-64
2021/06/03 00:48:22;;;;;;;;;;;;;;;21.33;44.71;99153.75;5032699;28;19964;-64
2021/06/03 00:50:50;;;;;;;;;;;;;;;21.61;45.09;99150.75;5055081;28;19920;-63
2021/06/03 00:53:16;;;;;;;;;;;;;;;22.32;42.71;99154.06;5046572;28;20368;-63
2021/06/03 00:55:42;;;;;;;;;;;;;;;22.37;42.63;99156.34;5053367;28;19919;-63
2021/06/03 00:58:08;;;;;;;;;;;;;;;22.45;43.35;99158.38;5032310;28;19971;-63
2021/06/03 01:00:34;;;;;;;;;;;;;;;22.43;43.33;99155.84;5055578;28;19963;-63
2021/06/03 01:02:59;;;;;;;;;;;;;;;22.36;43.77;99157.31;5052163;28;19971;-63
2021/06/03 01:05:26;;;;;;;;;;;;;;;22.17;44.29;99159.66;5055315;28;19916;-64
2021/06/03 01:07:51;;;;;;;;;;;;;;;21.63;46.16;99167.22;5059578;28;19964;-64
2021/06/03 01:10:17;;;;;;;;;;;;;;;21.45;47.40;99163.34;5048300;28;19962;-63
2021/06/03 01:12:51;;;;;;;;;;;;;;;21.95;45.96;99161.31;5052067;28;20027;-63
2021/06/03 01:15:17;;;;;;;;;;;;;;;21.98;47.78;99168.09;5055506;28;19959;-63
2021/06/03 01:17:42;;;;;;;;;;;;;;;22.01;46.28;99170.47;5033069;28;19968;-63
2021/06/03 01:20:08;;;;;;;;;;;;;;;21.88;46.17;99167.97;5016874;28;19913;-63
2021/06/03 01:22:33;;;;;;;;;;;;;;;21.89;46.82;99161.78;5031209;28;19920;-63
2021/06/03 01:24:58;;;;;;;;;;;;;;;21.31;47.53;99170.41;5055443;28;19926;-63
2021/06/03 01:27:26;;;;;;;;;;;;;;;21.23;46.99;99174.53;5013594;28;19920;-63
2021/06/03 01:29:54;;;;;;;;;;;;;;;21.17;48.99;99165.34;5055374;28;20344;-63
2021/06/03 01:32:20;;;;;;;;;;;;;;;20.80;49.24;99170.63;5050636;28;19930;-63
2021/06/03 01:34:46;;;;;;;;;;;;;;;20.72;48.52;99174.75;5055109;28;21071;-63
2021/06/03 01:37:11;;;;;;;;;;;;;;;20.83;48.48;99167.78;5055171;28;19920;-63
2021/06/03 01:39:36;;;;;;;;;;;;;;;20.58;48.03;99173.09;5055788;28;20563;-64
2021/06/03 01:42:02;;;;;;;;;;;;;;;20.83;47.28;99167.78;5056274;28;19916;-63
2021/06/03 01:44:27;;;;;;;;;;;;;;;20.64;47.56;99172.66;5027161;28;19913;-63
2021/06/03 01:46:53;;;;;;;;;;;;;;;20.53;48.06;99172.56;5050598;28;19919;-63
2021/06/03 01:49:19;;;;;;;;;;;;;;;20.78;47.27;99167.28;5032713;28;19951;-63
2021/06/03 01:51:44;;;;;;;;;;;;;;;20.53;48.11;99167.34;5053561;28;19951;-63
2021/06/03 01:54:10;;;;;;;;;;;;;;;20.62;47.92;99171.94;5055488;28;19925;-64
2021/06/03 01:56:36;;;;;;;;;;;;;;;20.76;47.72;99169.19;5058332;28;19916;-63
2021/06/03 01:59:01;;;;;;;;;;;;;;;21.15;46.41;99167.25;5032604;28;19975;-63
2021/06/03 02:01:26;;;;;;;;;;;;;;;20.71;47.95;99171.28;5044241;28;19974;-63
2021/06/03 02:03:52;;;;;;;;;;;;;;;20.48;50.00;99173.72;5036452;28;19924;-63
2021/06/03 02:06:17;;;;;;;;;;;;;;;20.69;49.85;99175.81;5036954;28;20389;-63
2021/06/03 02:08:42;;;;;;;;;;;;;;;20.30;50.55;99164.53;5042177;28;19920;-63
2021/06/03 02:11:08;;;;;;;;;;;;;;;20.51;50.18;99166.59;5032577;28;19929;-63
2021/06/03 02:13:34;;;;;;;;;;;;;;;20.17;50.65;99158.50;5039464;28;19948;-63
2021/06/03 02:16:02;;;;;;;;;;;;;;;20.59;49.76;99159.06;5038760;28;20643;-63
2021/06/03 02:18:29;;;;;;;;;;;;;;;20.63;50.23;99161.34;5036579;28;19920;-63
2021/06/03 02:20:55;;;;;;;;;;;;;;;20.42;51.04;99158.44;5036905;28;20343;-63
2021/06/03 02:23:20;;;;;;;;;;;;;;;20.83;50.02;99161.72;5036083;28;19932;-63
2021/06/03 02:25:46;;;;;;;;;;;;;;;20.99;48.99;99161.47;5034564;28;19974;-63
2021/06/03 02:28:11;;;;;;;;;;;;;;;20.62;51.08;99164.09;5040528;28;19920;-63
2021/06/03 02:30:36;;;;;;;;;;;;;;;20.57;51.95;99166.19;5036665;28;20051;-63
2021/06/03 02:33:02;;;;;;;;;;;;;;;20.78;51.74;99171.69;5032569;28;19927;-63
2021/06/03 02:35:28;;;;;;;;;;;;;;;20.27;53.33;99169.97;5037197;28;19943;-62
2021/06/03 02:37:53;;;;;;;;;;;;;;;20.50;51.37;99175.38;5033788;28;19917;-63
2021/06/03 02:40:20;;;;;;;;;;;;;;;19.81;55.32;99167.91;5042000;28;19984;-63
2021/06/03 02:42:46;;;;;;;;;;;;;;;20.02;54.87;99171.66;5031466;28;19917;-63
2021/06/03 02:45:13;;;;;;;;;;;;;;;19.97;55.06;99168.53;5037414;28;20425;-63
2021/06/03 02:47:39;;;;;;;;;;;;;;;20.10;55.35;99171.16;5031942;28;20051;-63
2021/06/03 02:50:06;;;;;;;;;;;;;;;19.89;56.16;99167.38;5031848;28;20015;-63
2021/06/03 02:52:31;;;;;;;;;;;;;;;19.98;55.27;99167.59;5034793;28;19921;-63
2021/06/03 02:54:56;;;;;;;;;;;;;;;19.90;55.33;99171.66;5033289;28;20066;-63
2021/06/03 02:57:23;;;;;;;;;;;;;;;20.23;55.66;99173.72;5032806;28;19917;-63
2021/06/03 02:59:48;;;;;;;;;;;;;;;20.01;54.51;99175.22;5063280;28;19912;-63
2021/06/03 03:02:13;;;;;;;;;;;;;;;20.12;56.33;99171.06;5034870;28;19961;-63
2021/06/03 03:04:39;;;;;;;;;;;;;;;20.21;55.98;99176.47;5056763;28;19947;-63
2021/06/03 03:07:04;;;;;;;;;;;;;;;20.01;56.83;99175.22;5048291;28;19931;-63
2021/06/03 03:09:30;;;;;;;;;;;;;;;20.16;56.34;99178.56;5060340;28;19920;-63
2021/06/03 03:11:56;;;;;;;;;;;;;;;20.02;56.31;99176.88;5051417;28;20515;-63
2021/06/03 03:14:22;;;;;;;;;;;;;;;20.21;53.19;99180.88;5054105;28;19988;-63
2021/06/03 03:16:47;;;;;;;;;;;;;;;19.72;58.94;99189.41;5053099;28;19917;-63
2021/06/03 03:19:12;;;;;;;;;;;;;;;19.61;59.90;99182.25;5059899;28;19916;-63
2021/06/03 03:21:38;;;;;;;;;;;;;;;19.76;59.38;99185.66;5058971;28;19936;-63
2021/06/03 03:24:03;;;;;;;;;;;;;;;19.81;58.90;99188.81;5052794;28;20360;-63
2021/06/03 03:26:29;;;;;;;;;;;;;;;19.52;61.00;99188.91;5030898;28;19924;-63
2021/06/03 03:28:54;;;;;;;;;;;;;;;19.80;59.49;99192.38;5055530;28;19928;-63
2021/06/03 03:31:19;;;;;;;;;;;;;;;19.63;61.60;99191.66;5056010;28;19925;-63
2021/06/03 03:33:45;;;;;;;;;;;;;;;19.53;61.53;99190.59;5058850;28;19967;-63
2021/06/03 03:36:10;;;;;;;;;;;;;;;19.38;61.46;99191.59;5057638;28;19924;-64
2021/06/03 03:38:35;;;;;;;;;;;;;;;19.41;62.46;99188.81;5058361;28;19917;-63
2021/06/03 03:41:02;;;;;;;;;;;;;;;19.55;62.90;99193.13;5052128;28;20400;-63
2021/06/03 03:43:27;;;;;;;;;;;;;;;19.34;64.30;99191.00;5060542;28;20020;-63
2021/06/03 03:45:53;;;;;;;;;;;;;;;19.52;60.56;99195.94;5056904;28;20031;-63
2021/06/03 03:48:18;;;;;;;;;;;;;;;19.49;62.30;99188.31;5061970;28;20400;-63
2021/06/03 03:50:43;;;;;;;;;;;;;;;19.42;63.49;99193.09;5055855;28;19928;-63
2021/06/03 03:53:08;;;;;;;;;;;;;;;19.56;62.76;99193.00;5050995;28;19970;-63
2021/06/03 03:55:34;;;;;;;;;;;;;;;19.80;61.03;99205.44;5048491;28;20012;-63
2021/06/03 03:57:59;;;;;;;;;;;;;;;19.91;61.17;99195.09;5054854;28;19929;-63
2021/06/03 04:00:26;;;;;;;;;;;;;;;19.59;63.64;99203.28;5040006;28;19917;-63
2021/06/03 04:02:52;;;;;;;;;;;;;;;19.46;63.72;99210.25;5033856;28;19920;-63
2021/06/03 04:05:17;;;;;;;;;;;;;;;19.50;63.59;99209.09;5050800;28;19974;-63
2021/06/03 04:07:43;;;;;;;;;;;;;;;19.64;64.29;99214.25;5055037;28;19927;-63
2021/06/03 04:10:19;;;;;;;;;;;;;;;19.37;64.45;99213.44;5047263;28;20404;-63
2021/06/03 04:12:44;;;;;;;;;;;;;;;19.61;64.37;99214.47;5027219;28;19920;-63
2021/06/03 04:15:10;;;;;;;;;;;;;;;19.48;65.69;99218.81;5031987;28;19986;-63
2021/06/03 04:17:36;;;;;;;;;;;;;;;19.51;64.51;99223.81;5051971;28;19943;-63
2021/06/03 04:20:01;;;;;;;;;;;;;;;19.57;64.81;99220.81;5047138;28;19920;-63
2021/06/03 04:22:26;;;;;;;;;;;;;;;19.62;65.28;99221.34;5054638;28;20357;-63
2021/06/03 04:24:52;;;;;;;;;;;;;;;19.48;66.63;99218.81;5048688;28;20437;-63
2021/06/03 04:27:17;;;;;;;;;;;;;;;19.54;65.68;99226.22;5054487;28;20397;-63
2021/06/03 04:29:43;;;;;;;;;;;;;;;19.43;66.91;99226.94;5049671;28;19952;-63
2021/06/03 04:32:08;;;;;;;;;;;;;;;19.79;65.35;99222.03;5050381;28;19995;-63
2021/06/03 04:34:35;;;;;;;;;;;;;;;19.96;66.12;99228.78;5055156;28;20880;-63
2021/06/03 04:37:00;;;;;;;;;;;;;;;20.06;64.95;99235.03;5052210;28;19923;-63
2021/06/03 04:39:26;;;;;;;;;;;;;;;20.36;63.95;99232.09;5049715;28;19970;-64
2021/06/03 04:41:51;;;;;;;;;;;;;;;20.27;64.26;99232.75;5050455;28;19924;-63
2021/06/03 04:44:16;;;;;;;;;;;;;;;20.45;65.60;99241.09;5056673;28;19919;-63
2021/06/03 04:46:42;;;;;;;;;;;;;;;20.22;65.18;99240.06;5055164;28;20364;-63
2021/06/03 04:49:07;;;;;;;;;;;;;;;20.45;66.70;99235.88;5057480;28;19917;-63
2021/06/03 04:51:34;;;;;;;;;;;;;;;20.43;65.97;99243.81;5059973;28;19921;-63
2021/06/03 04:54:00;;;;;;;;;;;;;;;20.43;66.00;99238.59;5045310;28;19983;-63
2021/06/03 04:56:25;;;;;;;;;;;;;;;20.72;66.82;99243.63;5054371;28;19952;-64
2021/06/03 04:58:50;;;;;;;;;;;;;;;20.67;65.82;99240.50;5036915;28;19925;-63
2021/06/03 05:01:16;;;;;;;;;;;;;;;20.39;66.73;99252.84;5053908;28;19974;-63
2021/06/03 05:03:41;;;;;;;;;;;;;;;20.35;67.13;99251.38;5033786;28;19917;-63
2021/06/03 05:06:07;;;;;;;;;;;;;;;20.72;65.08;99248.84;5028835;28;20382;-63
2021/06/03 05:08:32;;;;;;;;;;;;;;;20.47;69.49;99260.97;5052909;28;19952;-63
2021/06/03 05:10:57;;;;;;;;;;;;;;;20.98;66.04;99259.25;5028621;28;20015;-63
2021/06/03 05:13:23;;;;;;;;;;;;;;;21.04;66.56;99256.22;5032751;28;19917;-63
2021/06/03 05:15:48;;;;;;;;;;;;;;;21.32;64.88;99252.44;5033288;28;19927;-63
2021/06/03 05:18:13;;;;;;;;;;;;;;;21.23;65.80;99261.81;5059183;28;20302;-63
2021/06/03 05:20:39;;;;;;;;;;;;;;;21.18;64.62;99261.28;5029953;28;19974;-63
2021/06/03 05:23:05;;;;;;;;;;;;;;;21.34;67.04;99266.25;5053848;28;19924;-63
2021/06/03 05:25:32;;;;;;;;;;;;;;;21.77;65.96;99264.94;5035817;28;19956;-65
2021/06/03 05:27:57;;;;;;;;;;;;;;;21.70;67.54;99273.25;5050601;28;19921;-63
2021/06/03 05:30:23;;;;;;;;;;;;;;;22.01;64.17;99272.75;5047599;28;20468;-63
2021/06/03 05:32:48;;;;;;;;;;;;;;;22.11;66.41;99277.19;5032371;28;19921;-63
2021/06/03 05:35:14;;;;;;;;;;;;;;;21.98;65.59;99279.06;5048903;28;19924;-63
2021/06/03 05:37:40;;;;;;;;;;;;;;;22.00;62.18;99274.56;5049511;28;19924;-63
2021/06/03 05:40:06;;;;;;;;;;;;;;;22.47;63.63;99267.53;5047406;28;19925;-63
2021/06/03 05:42:31;;;;;;;;;;;;;;;22.03;62.74;99276.97;5032433;28;19925;-63
2021/06/03 05:44:56;;;;;;;;;;;;;;;22.15;65.23;99277.81;5054386;28;20408;-63
2021/06/03 05:47:22;;;;;;;;;;;;;;;22.01;63.88;99281.47;5049617;28;19916;-62
2021/06/03 05:49:47;;;;;;;;;;;;;;;22.06;62.75;99287.22;5054134;28;19921;-63
2021/06/03 05:52:13;;;;;;;;;;;;;;;22.12;63.56;99285.91;5047057;28;19999;-63
2021/06/03 05:54:38;;;;;;;;;;;;;;;21.95;63.97;99289.81;5048764;28;19928;-63
2021/06/03 05:57:04;;;;;;;;;;;;;;;21.70;64.73;99291.59;5047262;28;19921;-63
2021/06/03 05:59:29;;;;;;;;;;;;;;;22.13;64.05;99288.41;5034702;28;19929;-63
2021/06/03 06:02:04;;;;;;;;;;;;;;;22.26;63.10;99298.00;5030764;28;19921;-63
2021/06/03 06:06:55;;;;;;;;;;;;;;;22.58;63.63;99295.56;5031108;28;19927;-63
2021/06/03 06:09:21;;;;;;;;;;;;;;;22.61;64.49;99300.56;5028934;28;19971;-63
2021/06/03 06:11:46;;;;;;;;;;;;;;;22.81;63.93;99296.41;5030533;28;19996;-63
2021/06/03 06:14:12;;;;;;;;;;;;;;;22.66;62.53;99302.84;5030485;28;19972;-63
2021/06/03 06:16:37;;;;;;;;;;;;;;;23.09;61.52;99310.84;5033117;28;19939;-63
2021/06/03 06:19:03;;;;;;;;;;;;;;;23.17;66.79;99312.88;5028755;28;19917;-63
2021/06/03 06:21:28;;;;;;;;;;;;;;;23.23;63.16;99308.94;5031723;28;20860;-63
2021/06/03 06:23:54;;;;;;;;;;;;;;;23.77;62.83;99306.31;5035621;28;20330;-63
2021/06/03 06:26:20;;;;;;;;;;;;;;;23.52;61.74;99317.13;5034510;28;20377;-63
2021/06/03 06:28:46;;;;;;;;;;;;;;;24.14;61.60;99313.78;5034713;28;19928;-63
2021/06/03 06:31:11;;;;;;;;;;;;;;;24.28;61.08;99315.25;5028083;28;20627;-63
2021/06/03 06:33:38;;;;;;;;;;;;;;;24.59;63.04;99313.53;5038444;28;19917;-63
2021/06/03 06:36:03;;;;;;;;;;;;;;;24.25;59.18;99317.31;5020390;28;19956;-63
2021/06/03 06:38:29;;;;;;;;;;;;;;;24.79;60.89;99319.72;5031385;28;19971;-63
2021/06/03 06:40:54;;;;;;;;;;;;;;;24.51;61.36;99318.59;5028779;28;20301;-63
2021/06/03 06:43:20;;;;;;;;;;;;;;;24.65;60.86;99316.59;5037327;28;19920;-63
2021/06/03 06:45:46;;;;;;;;;;;;;;;24.87;61.52;99319.06;5036363;28;19920;-63
2021/06/03 06:48:12;;;;;;;;;;;;;;;25.36;59.33;99322.72;5036478;28;19917;-63
2021/06/03 06:50:38;;;;;;;;;;;;;;;25.66;59.19;99323.59;5038213;28;19921;-63
2021/06/03 06:53:03;;;;;;;;;;;;;;;25.73;58.49;99324.69;5033644;28;19920;-63
2021/06/03 06:55:29;;;;;;;;;;;;;;;25.47;60.36;99327.00;5040431;28;20263;-63
2021/06/03 06:57:55;;;;;;;;;;;;;;;25.34;60.15;99324.66;5044275;28;19920;-63
2021/06/03 07:00:21;;;;;;;;;;;;;;;25.56;61.48;99322.72;5042878;28;19925;-63
2021/06/03 07:02:46;;;;;;;;;;;;;;;25.57;63.22;99333.16;5058465;28;19943;-63
2021/06/03 07:05:13;;;;;;;;;;;;;;;25.61;62.62;99331.06;5056085;28;20386;-63
2021/06/03 07:07:38;;;;;;;;;;;;;;;25.77;64.66;99336.66;5056536;28;20389;-63
2021/06/03 07:10:05;;;;;;;;;;;;;;;25.48;68.65;99343.66;5055795;28;19928;-63
2021/06/03 07:12:30;;;;;;;;;;;;;;;26.07;64.30;99338.34;5052982;28;20413;-63
2021/06/03 07:14:56;;;;;;;;;;;;;;;25.62;65.20;99338.84;5036673;28;20023;-63
2021/06/03 07:17:21;;;;;;;;;;;;;;;26.19;61.73;99333.75;5054174;28;19951;-63
2021/06/03 07:19:47;;;;;;;;;;;;;;;26.44;60.83;99339.41;5051369;28;19921;-62
2021/06/03 07:22:16;;;;;;;;;;;;;;;26.44;61.77;99344.69;5052052;28;19921;-61
2021/06/03 07:24:43;;;;;;;;;;;;;;;26.33;62.11;99339.56;5032422;28;19920;-64
2021/06/03 07:27:09;;;;;;;;;;;;;;;26.75;58.34;99347.94;5037393;28;19999;-64
2021/06/03 07:29:34;;;;;;;;;;;;;;;26.35;62.78;99342.91;5032348;28;19924;-63
2021/06/03 07:32:00;;;;;;;;;;;;;;;26.88;58.42;99339.72;5054511;28;19924;-63
2021/06/03 07:34:25;;;;;;;;;;;;;;;27.13;57.27;99338.19;5053070;28;20983;-63
2021/06/03 07:36:51;;;;;;;;;;;;;;;27.20;55.34;99336.66;5053673;28;20344;-63
2021/06/03 07:39:16;;;;;;;;;;;;;;;27.10;54.79;99341.97;5055911;28;19931;-63
2021/06/03 07:41:42;;;;;;;;;;;;;;;27.63;55.08;99344.91;5033807;28;20282;-63
2021/06/03 07:44:07;;;;;;;;;;;;;;;28.21;50.52;99352.38;5056773;28;20478;-63
2021/06/03 07:46:33;;;;;;;;;;;;;;;27.71;57.63;99342.31;5054409;28;19924;-63
2021/06/03 07:48:59;;;;;;;;;;;;;;;28.27;52.74;99345.66;5052852;28;19932;-63
2021/06/03 07:51:25;;;;;;;;;;;;;;;28.64;53.54;99341.94;5052753;28;19924;-63
2021/06/03 07:53:50;;;;;;;;;;;;;;;27.63;58.05;99352.84;5035575;28;20366;-63
2021/06/03 07:56:16;;;;;;;;;;;;;;;28.09;64.17;99354.44;5054274;28;19924;-64
2021/06/03 07:58:41;;;;;;;;;;;;;;;28.82;55.52;99355.13;5032547;28;20415;-63
2021/06/03 08:01:06;;;;;;;;;;;;;;;26.00;63.87;99357.50;5052045;28;20449;-63
2021/06/03 08:03:32;;;;;;;;;;;;;;;26.88;60.74;99358.22;5051434;28;20010;-63
2021/06/03 08:05:57;;;;;;;;;;;;;;;26.61;67.05;99351.88;5051095;28;19921;-63
2021/06/03 08:08:22;;;;;;;;;;;;;;;27.48;64.18;99348.06;5051486;28;19928;-63
2021/06/03 08:10:48;;;;;;;;;;;;;;;25.96;75.60;99358.75;5050786;28;20030;-63
2021/06/03 08:13:13;;;;;;;;;;;;;;;26.56;70.33;99348.84;5052057;28;19925;-63
2021/06/03 08:15:41;;;;;;;;;;;;;;;25.72;83.06;99365.22;5055403;28;20444;-63
2021/06/03 08:18:06;;;;;;;;;;;;;;;25.76;71.30;99361.34;5050517;28;20286;-63
2021/06/03 08:20:33;;;;;;;;;;;;;;;25.36;89.06;99354.34;5054742;28;19916;-63
2021/06/03 08:22:59;;;;;;;;;;;;;;;25.38;75.37;99357.66;5047747;28;20313;-65
2021/06/03 08:25:24;;;;;;;;;;;;;;;25.45;84.55;99372.00;5049230;28;20031;-63
2021/06/03 08:27:50;;;;;;;;;;;;;;;24.73;89.42;99365.03;5035964;28;19920;-63
2021/06/03 08:30:16;;;;;;;;;;;;;;;24.53;88.60;99364.06;5051578;28;19931;-63
2021/06/03 08:32:42;;;;;;;;;;;;;;;23.97;96.48;99369.56;5028823;28;19916;-63
2021/06/03 08:35:14;;;;;;;;;;;;;;;24.37;98.95;99377.66;5043340;28;19916;-63
2021/06/03 08:37:39;;;;;;;;;;;;;;;25.09;97.09;99367.25;5053433;28;20328;-63
2021/06/03 08:40:05;;;;;;;;;;;;;;;24.93;93.04;99371.22;5050736;28;19987;-63
2021/06/03 08:42:30;;;;;;;;;;;;;;;25.59;86.65;99375.19;5048918;28;20035;-63
2021/06/03 08:44:55;;;;;;;;;;;;;;;25.65;90.82;99385.22;5047811;28;19921;-64
2021/06/03 08:47:20;;;;;;;;;;;;;;;26.39;92.13;99371.53;5050603;28;19921;-63
2021/06/03 08:49:46;;;;;;;;;;;;;;;28.29;76.11;99368.34;5031158;28;20319;-63
2021/06/03 08:52:13;;;;;;;;;;;;;;;26.42;83.49;99373.03;5056269;28;20353;-63
2021/06/03 08:54:40;;;;;;;;;;;;;;;26.29;89.25;99371.50;5038217;28;19920;-63
2021/06/03 08:57:07;;;;;;;;;;;;;;;24.96;94.38;99372.75;5049458;28;19917;-63
2021/06/03 08:59:32;;;;;;;;;;;;;;;26.35;93.79;99366.66;5054491;28;20300;-63
2021/06/03 09:01:58;;;;;;;;;;;;;;;26.75;81.45;99370.91;5051598;28;20019;-63
2021/06/03 09:04:23;;;;;;;;;;;;;;;26.34;79.19;99373.72;5049494;28;19917;-63
2021/06/03 09:06:48;;;;;;;;;;;;;;;25.25;82.46;99376.38;5048662;28;19959;-63
2021/06/03 09:09:14;;;;;;;;;;;;;;;25.91;85.99;99377.66;5031769;28;19939;-63
2021/06/03 09:11:39;;;;;;;;;;;;;;;24.96;90.75;99378.84;5030670;28;20011;-64
2021/06/03 09:14:07;;;;;;;;;;;;;;;25.16;100.00;99371.03;5050691;28;20297;-62
2021/06/03 09:16:34;;;;;;;;;;;;;;;25.44;87.87;99378.22;5048495;28;19927;-63
2021/06/03 09:19:06;;;;;;;;;;;;;;;25.27;93.33;99384.13;5049687;28;19920;-63
2021/06/03 09:21:35;;;;;;;;;;;;;;;25.10;96.44;99385.56;5050869;28;19921;-63
2021/06/03 09:24:03;;;;;;;;;;;;;;;25.67;87.78;99384.09;5051488;28;19920;-63
2021/06/03 09:26:29;;;;;;;;;;;;;;;25.22;92.52;99379.25;5050197;28;19920;-62
2021/06/03 09:28:57;;;;;;;;;;;;;;;24.80;94.05;99383.78;5033450;28;19925;-62
2021/06/03 09:31:22;;;;;;;;;;;;;;;25.30;97.30;99386.53;5048247;28;20235;-63
2021/06/03 09:33:51;;;;;;;;;;;;;;;25.27;86.67;99381.50;5027475;28;20662;-63
2021/06/03 09:36:18;;;;;;;;;;;;;;;26.51;96.08;99380.13;5027451;28;19931;-63
2021/06/03 09:38:50;;;;;;;;;;;;;;;27.56;69.64;99379.06;5051416;28;19923;-63
2021/06/03 09:41:17;;;;;;;;;;;;;;;26.85;77.63;99380.47;5054920;28;19920;-63
2021/06/03 09:43:43;;;;;;;;;;;;;;;27.16;71.13;99380.19;5050329;28;19939;-63
2021/06/03 09:46:08;;;;;;;;;;;;;;;26.98;76.58;99379.31;5051614;28;19991;-63
2021/06/03 09:48:41;;;;;;;;;;;;;;;28.37;77.03;99383.47;5043463;28;19923;-63
2021/06/03 09:51:23;;;;;;;;;;;;;;;27.48;74.26;99377.16;5037200;28;19920;-63
2021/06/03 09:53:49;;;;;;;;;;;;;;;27.93;72.55;99381.59;5047878;28;20003;-64
2021/06/03 09:56:23;;;;;;;;;;;;;;;28.31;66.69;99378.81;5056775;28;20066;-63
2021/06/03 09:58:48;;;;;;;;;;;;;;;27.22;79.67;99373.53;5046974;28;19924;-63
2021/06/03 10:01:14;;;;;;;;;;;;;;;29.76;70.84;99373.59;5053965;28;19943;-63
2021/06/03 10:03:49;;;;;;;;;;;;;;;27.43;75.05;99365.34;5028041;28;20012;-63
2021/06/03 10:06:15;;;;;;;;;;;;;;;29.00;63.08;99374.44;5046747;28;20462;-63
2021/06/03 10:08:47;;;;;;;;;;;;;;;29.88;59.34;99374.13;5048053;28;19917;-63
2021/06/03 10:11:13;;;;;;;;;;;;;;;29.84;61.41;99370.13;5055723;28;20309;-63
2021/06/03 10:13:57;;;;;;;;;;;;;;;27.15;75.04;99370.63;5021844;28;19916;-63
2021/06/03 10:16:29;;;;;;;;;;;;;;;27.95;78.17;99366.41;5052432;28;19920;-63
2021/06/03 10:19:14;;;;;;;;;;;;;;;27.95;73.90;99370.88;5048188;28;19928;-63
2021/06/03 10:21:40;;;;;;;;;;;;;;;27.51;87.45;99366.28;5052241;28;19917;-63
2021/06/03 10:24:05;;;;;;;;;;;;;;;29.26;68.28;99361.16;5049733;28;20014;-63
2021/06/03 10:26:51;;;;;;;;;;;;;;;27.53;77.50;99371.44;5037826;28;20015;-63
2021/06/03 10:29:16;;;;;;;;;;;;;;;26.28;84.22;99372.50;5054311;28;19974;-63
2021/06/03 10:31:41;;;;;;;;;;;;;;;25.76;86.99;99368.44;5051075;28;19925;-62
2021/06/03 10:34:07;;;;;;;;;;;;;;;26.78;89.40;99368.00;5052395;28;19920;-63
2021/06/03 10:36:32;;;;;;;;;;;;;;;26.54;94.34;99363.97;5031608;28;19962;-62
2021/06/03 10:38:57;;;;;;;;;;;;;;;26.81;89.25;99362.41;5030870;28;19948;-63
2021/06/03 10:41:23;;;;;;;;;;;;;;;26.95;90.00;99364.56;5053841;28;20038;-62
2021/06/03 10:43:48;;;;;;;;;;;;;;;27.39;79.94;99359.50;5018133;28;19921;-62
2021/06/03 10:46:13;;;;;;;;;;;;;;;26.57;94.54;99371.66;5033054;28;19924;-63
2021/06/03 10:48:41;;;;;;;;;;;;;;;26.09;100.00;99372.50;5048283;28;19928;-63
2021/06/03 10:51:07;;;;;;;;;;;;;;;25.95;100.00;99365.00;5050289;28;19931;-63
2021/06/03 10:53:32;;;;;;;;;;;;;;;26.27;99.37;99360.28;5030298;28;20018;-64
2021/06/03 10:56:08;;;;;;;;;;;;;;;25.97;99.39;99370.97;5036542;28;19963;-64
2021/06/03 10:58:34;;;;;;;;;;;;;;;25.91;100.00;99367.09;5051764;28;19925;-63
2021/06/03 11:01:07;;;;;;;;;;;;;;;25.62;84.81;99367.84;5036230;28;19917;-63
2021/06/03 11:03:38;;;;;;;;;;;;;;;25.67;99.39;99370.09;5051410;28;19916;-63
2021/06/03 11:06:08;;;;;;;;;;;;;;;25.70;100.00;99371.63;5052497;28;19923;-63
2021/06/03 11:08:34;;;;;;;;;;;;;;;26.21;98.07;99363.47;5052620;28;19916;-63
2021/06/03 11:11:09;;;;;;;;;;;;;;;25.84;100.00;99361.50;5053023;28;20401;-63
2021/06/03 11:13:35;;;;;;;;;;;;;;;26.46;95.83;99362.06;5052979;28;20396;-63
2021/06/03 11:16:10;;;;;;;;;;;;;;;26.00;100.00;99368.03;5051979;28;19921;-63
2021/06/03 11:18:45;;;;;;;;;;;;;;;27.01;91.90;99368.47;5053654;28;19916;-63
2021/06/03 11:21:29;;;;;;;;;;;;;;;26.47;90.54;99370.81;5045546;28;20301;-63
2021/06/03 11:23:54;;;;;;;;;;;;;;;27.03;88.44;99362.06;5058998;28;20399;-63
2021/06/03 11:26:40;;;;;;;;;;;;;;;26.85;89.91;99363.78;5050199;28;19944;-63
2021/06/03 11:29:10;;;;;;;;;;;;;;;26.57;100.00;99355.81;5051186;28;19920;-63
2021/06/03 11:31:35;;;;;;;;;;;;;;;25.55;100.00;99373.81;5032105;28;19925;-63
2021/06/03 11:34:05;;;;;;;;;;;;;;;25.33;100.00;99366.97;5054351;28;19920;-63
2021/06/03 11:36:31;;;;;;;;;;;;;;;25.16;100.00;99368.41;5030186;28;19924;-63
2021/06/03 11:38:56;;;;;;;;;;;;;;;24.48;100.00;99384.69;5034845;28;19978;-63
2021/06/03 11:41:38;;;;;;;;;;;;;;;24.55;100.00;99383.22;5050367;28;19924;-63
2021/06/03 11:44:11;;;;;;;;;;;;;;;24.24;100.00;99381.44;5054823;28;20037;-63
2021/06/03 11:46:54;;;;;;;;;;;;;;;24.66;100.00;99371.78;5055231;28;19912;-65
2021/06/03 11:49:38;;;;;;;;;;;;;;;24.78;100.00;99367.25;5057279;28;19925;-63
2021/06/03 11:52:10;;;;;;;;;;;;;;;25.22;100.00;99367.88;5055505;28;19967;-63
2021/06/03 11:54:54;;;;;;;;;;;;;;;25.49;100.00;99369.09;5054060;28;19943;-63
2021/06/03 11:57:20;;;;;;;;;;;;;;;26.41;100.00;99366.94;5058281;28;20494;-63
2021/06/03 11:59:56;;;;;;;;;;;;;;;26.27;100.00;99365.56;5035586;28;19991;-63
2021/06/03 12:02:32;;;;;;;;;;;;;;;26.00;100.00;99366.28;5055528;28;19917;-63
2021/06/03 12:05:13;;;;;;;;;;;;;;;25.33;100.00;99361.69;5033935;28;19963;-63
2021/06/03 12:07:49;;;;;;;;;;;;;;;24.96;100.00;99357.78;5053020;28;19920;-63
2021/06/03 12:10:21;;;;;;;;;;;;;;;25.34;100.00;99355.44;5036561;28;19960;-63
2021/06/03 12:12:47;;;;;;;;;;;;;;;24.65;100.00;99356.09;5033656;28;20361;-63
2021/06/03 12:15:15;;;;;;;;;;;;;;;24.24;100.00;99357.75;5056364;28;19951;-63
2021/06/03 12:17:41;;;;;;;;;;;;;;;24.80;100.00;99358.25;5059108;28;19921;-63
2021/06/03 12:20:09;;;;;;;;;;;;;;;24.73;100.00;99351.03;5031885;28;19939;-63
2021/06/03 12:22:34;;;;;;;;;;;;;;;25.70;100.00;99353.16;5054654;28;20082;-63
2021/06/03 12:25:00;;;;;;;;;;;;;;;28.11;79.63;99354.31;5050725;28;19996;-63
2021/06/03 12:27:29;;;;;;;;;;;;;;;27.75;79.66;99370.16;5055041;28;20281;-63
2021/06/03 12:29:57;;;;;;;;;;;;;;;28.95;74.65;99379.41;5033047;28;19943;-63
2021/06/03 12:32:23;;;;;;;;;;;;;;;26.15;81.48;99382.50;5052033;28;19920;-64
2021/06/03 12:34:48;;;;;;;;;;;;;;;27.23;74.34;99367.25;5032477;28;19927;-64
2021/06/03 12:37:21;;;;;;;;;;;;;;;25.80;81.50;99375.09;5050708;28;20401;-64
2021/06/03 12:39:47;;;;;;;;;;;;;;;26.20;83.11;99353.88;5053509;28;19967;-64
2021/06/03 12:42:12;;;;;;;;;;;;;;;26.44;79.55;99355.25;5050547;28;19956;-63
2021/06/03 12:44:38;;;;;;;;;;;;;;;25.81;79.59;99353.84;5036913;28;19921;-64
2021/06/03 12:47:06;;;;;;;;;;;;;;;26.47;76.75;99333.81;5049083;28;20058;-64